createdAt,value
2017-07-26T00:00:10.077Z,16.22
2017-07-26T00:00:23.000Z,16.25
2017-07-26T00:00:36.441Z,16.32
2017-07-26T00:00:49.962Z,16.29
2017-07-26T00:01:03.526Z,16.3
2017-07-26T00:01:17.004Z,16.32
2017-07-26T00:01:30.557Z,16.32
2017-07-26T00:01:43.995Z,16.32
2017-07-26T00:01:57.471Z,16.26
2017-07-26T00:02:10.394Z,16.14
2017-07-26T00:02:23.807Z,16.16
2017-07-26T00:02:37.227Z,16.18
2017-07-26T00:02:50.739Z,16.21
2017-07-26T00:03:03.644Z,16.14
2017-07-26T00:03:17.158Z,16.14
2017-07-26T00:03:30.562Z,16.27
2017-07-26T00:03:43.433Z,16.22
2017-07-26T00:03:56.902Z,16.21
2017-07-26T00:04:10.318Z,16.21
2017-07-26T00:04:23.240Z,16.18
2017-07-26T00:04:36.191Z,16.16
2017-07-26T00:04:49.685Z,16.17
2017-07-26T00:05:03.131Z,16.17
2017-07-26T00:05:16.096Z,16.25
2017-07-26T00:05:29.649Z,16.11
2017-07-26T00:05:42.572Z,16.17
2017-07-26T00:05:56.020Z,16.21
2017-07-26T00:06:09.488Z,16.14
2017-07-26T00:06:22.404Z,16.11
2017-07-26T00:06:35.913Z,16.22
2017-07-26T00:06:49.388Z,16.17
2017-07-26T00:07:02.862Z,16.17
2017-07-26T00:07:16.425Z,16.17
2017-07-26T00:07:29.375Z,16.13
2017-07-26T00:07:42.843Z,16.16
2017-07-26T00:07:56.246Z,16.21
2017-07-26T00:08:09.692Z,16
2017-07-26T00:08:22.585Z,16.02
2017-07-26T00:08:36.036Z,15.98
2017-07-26T00:08:48.981Z,16.04
2017-07-26T00:09:01.894Z,16
2017-07-26T00:09:15.358Z,16.06
2017-07-26T00:09:27.748Z,16.08
2017-07-26T00:09:41.161Z,16.06
2017-07-26T00:09:54.620Z,16.02
2017-07-26T00:10:07.528Z,16.02
2017-07-26T00:10:20.969Z,16.02
2017-07-26T00:10:33.928Z,15.98
2017-07-26T00:10:47.508Z,16
2017-07-26T00:11:01.747Z,16
2017-07-26T00:11:15.151Z,16.02
2017-07-26T00:11:28.074Z,16.02
2017-07-26T00:11:41.501Z,15.96
2017-07-26T00:11:54.969Z,15.92
2017-07-26T00:12:07.915Z,15.89
2017-07-26T00:12:21.440Z,15.91
2017-07-26T00:12:34.320Z,15.95
2017-07-26T00:12:47.757Z,15.92
2017-07-26T00:13:01.201Z,15.92
2017-07-26T00:13:14.649Z,15.91
2017-07-26T00:13:28.090Z,15.88
2017-07-26T00:13:40.940Z,15.92
2017-07-26T00:13:54.353Z,15.92
2017-07-26T00:14:07.257Z,15.89
2017-07-26T00:14:20.189Z,15.91
2017-07-26T00:14:33.642Z,15.93
2017-07-26T00:14:47.082Z,15.89
2017-07-26T00:15:00.515Z,15.84
2017-07-26T00:15:13.491Z,15.95
2017-07-26T00:15:26.998Z,15.92
2017-07-26T00:15:39.969Z,15.89
2017-07-26T00:15:53.465Z,15.81
2017-07-26T00:16:07.101Z,15.89
2017-07-26T00:16:20.518Z,15.88
2017-07-26T00:16:34.013Z,15.89
2017-07-26T00:16:47.474Z,15.86
2017-07-26T00:17:00.920Z,15.91
2017-07-26T00:17:13.323Z,15.88
2017-07-26T00:17:26.714Z,15.91
2017-07-26T00:17:40.224Z,15.98
2017-07-26T00:17:53.742Z,15.89
2017-07-26T00:18:07.182Z,16
2017-07-26T00:18:20.643Z,16.02
2017-07-26T00:18:34.041Z,16.02
2017-07-26T00:18:46.947Z,16.07
2017-07-26T00:18:59.881Z,15.99
2017-07-26T00:19:13.376Z,16.08
2017-07-26T00:19:26.331Z,16.06
2017-07-26T00:19:39.812Z,16.06
2017-07-26T00:19:53.302Z,16.02
2017-07-26T00:20:05.701Z,16.07
2017-07-26T00:20:19.126Z,16.08
2017-07-26T00:20:32.594Z,16.04
2017-07-26T00:20:46.109Z,16.02
2017-07-26T00:20:59.544Z,16.07
2017-07-26T00:21:12.484Z,16.06
2017-07-26T00:21:25.921Z,16.04
2017-07-26T00:21:39.402Z,16
2017-07-26T00:21:52.828Z,15.98
2017-07-26T00:22:05.203Z,16.02
2017-07-26T00:22:18.135Z,15.96
2017-07-26T00:22:31.624Z,16.02
2017-07-26T00:22:45.077Z,15.98
2017-07-26T00:22:58.522Z,15.98
2017-07-26T00:23:12.038Z,15.89
2017-07-26T00:23:25.475Z,15.98
2017-07-26T00:23:38.908Z,15.83
2017-07-26T00:23:52.325Z,15.91
2017-07-26T00:24:05.758Z,15.86
2017-07-26T00:24:18.128Z,15.88
2017-07-26T00:24:31.584Z,15.95
2017-07-26T00:24:44.497Z,15.93
2017-07-26T00:24:57.971Z,15.88
2017-07-26T00:25:11.411Z,15.91
2017-07-26T00:25:24.276Z,15.88
2017-07-26T00:25:37.756Z,15.92
2017-07-26T00:25:50.672Z,15.83
2017-07-26T00:26:04.125Z,15.88
2017-07-26T00:26:17.894Z,15.83
2017-07-26T00:26:31.336Z,15.86
2017-07-26T00:26:44.773Z,15.83
2017-07-26T00:26:57.684Z,15.86
2017-07-26T00:27:11.094Z,15.83
2017-07-26T00:27:23.529Z,15.86
2017-07-26T00:27:36.997Z,15.81
2017-07-26T00:27:50.481Z,15.78
2017-07-26T00:28:03.986Z,15.78
2017-07-26T00:28:16.948Z,15.8
2017-07-26T00:28:30.351Z,15.8
2017-07-26T00:28:43.202Z,15.77
2017-07-26T00:28:56.625Z,15.8
2017-07-26T00:29:10.088Z,15.78
2017-07-26T00:29:23.556Z,15.78
2017-07-26T00:29:37.021Z,15.8
2017-07-26T00:29:50.493Z,15.77
2017-07-26T00:30:03.405Z,15.75
2017-07-26T00:30:16.843Z,15.78
2017-07-26T00:30:30.271Z,15.75
2017-07-26T00:30:43.164Z,15.78
2017-07-26T00:30:56.048Z,15.8
2017-07-26T00:31:09.559Z,15.78
2017-07-26T00:31:22.518Z,15.78
2017-07-26T00:31:35.413Z,15.78
2017-07-26T00:31:48.852Z,15.78
2017-07-26T00:32:02.313Z,15.81
2017-07-26T00:32:15.818Z,15.81
2017-07-26T00:32:29.345Z,15.84
2017-07-26T00:32:42.744Z,15.86
2017-07-26T00:32:56.174Z,15.75
2017-07-26T00:33:09.138Z,15.84
2017-07-26T00:33:22.610Z,15.74
2017-07-26T00:33:36.058Z,15.77
2017-07-26T00:33:49.465Z,15.81
2017-07-26T00:34:02.394Z,15.7
2017-07-26T00:34:15.797Z,15.84
2017-07-26T00:34:29.237Z,15.77
2017-07-26T00:34:42.657Z,15.7
2017-07-26T00:34:56.102Z,15.83
2017-07-26T00:35:09.044Z,15.68
2017-07-26T00:35:22.526Z,15.78
2017-07-26T00:35:35.480Z,15.68
2017-07-26T00:35:48.980Z,15.71
2017-07-26T00:36:02.342Z,15.74
2017-07-26T00:36:15.775Z,15.7
2017-07-26T00:36:29.303Z,15.67
2017-07-26T00:36:42.183Z,15.7
2017-07-26T00:36:54.608Z,15.63
2017-07-26T00:37:08.053Z,15.58
2017-07-26T00:37:20.454Z,15.55
2017-07-26T00:37:33.413Z,15.62
2017-07-26T00:37:45.856Z,15.59
2017-07-26T00:37:59.331Z,15.65
2017-07-26T00:38:12.272Z,15.63
2017-07-26T00:38:25.742Z,15.65
2017-07-26T00:38:38.662Z,15.56
2017-07-26T00:38:51.628Z,15.59
2017-07-26T00:39:05.113Z,15.59
2017-07-26T00:39:18.577Z,15.55
2017-07-26T00:39:31.512Z,15.45
2017-07-26T00:39:44.433Z,15.47
2017-07-26T00:39:57.365Z,15.47
2017-07-26T00:40:10.839Z,15.4
2017-07-26T00:40:23.774Z,15.44
2017-07-26T00:40:37.176Z,15.43
2017-07-26T00:40:50.571Z,15.41
2017-07-26T00:41:04.039Z,15.43
2017-07-26T00:41:18.247Z,15.4
2017-07-26T00:41:31.187Z,15.34
2017-07-26T00:41:44.682Z,15.4
2017-07-26T00:41:58.250Z,15.35
2017-07-26T00:42:11.700Z,15.3
2017-07-26T00:42:25.203Z,15.38
2017-07-26T00:42:38.622Z,15.34
2017-07-26T00:42:52.074Z,15.3
2017-07-26T00:43:04.986Z,15.35
2017-07-26T00:43:17.947Z,15.37
2017-07-26T00:43:30.866Z,15.37
2017-07-26T00:43:44.277Z,15.33
2017-07-26T00:43:57.171Z,15.38
2017-07-26T00:44:09.557Z,15.33
2017-07-26T00:44:21.971Z,15.34
2017-07-26T00:44:35.439Z,15.35
2017-07-26T00:44:48.915Z,15.34
2017-07-26T00:45:01.841Z,15.31
2017-07-26T00:45:14.742Z,15.3
2017-07-26T00:45:27.130Z,15.26
2017-07-26T00:45:40.498Z,15.3
2017-07-26T00:45:53.916Z,15.41
2017-07-26T00:46:06.788Z,15.4
2017-07-26T00:46:20.400Z,15.45
2017-07-26T00:46:33.824Z,15.41
2017-07-26T00:46:47.305Z,15.45
2017-07-26T00:47:00.742Z,15.4
2017-07-26T00:47:13.646Z,15.44
2017-07-26T00:47:26.616Z,15.4
2017-07-26T00:47:40.105Z,15.41
2017-07-26T00:47:52.986Z,15.44
2017-07-26T00:48:05.972Z,15.41
2017-07-26T00:48:19.463Z,15.41
2017-07-26T00:48:32.879Z,15.49
2017-07-26T00:48:46.318Z,15.49
2017-07-26T00:48:59.265Z,15.41
2017-07-26T00:49:12.765Z,15.43
2017-07-26T00:49:26.268Z,15.41
2017-07-26T00:49:39.792Z,15.49
2017-07-26T00:49:53.273Z,15.47
2017-07-26T00:50:06.670Z,15.49
2017-07-26T00:50:20.127Z,15.45
2017-07-26T00:50:33.608Z,15.41
2017-07-26T00:50:46.011Z,15.47
2017-07-26T00:50:59.451Z,15.49
2017-07-26T00:51:12.914Z,15.51
2017-07-26T00:51:26.422Z,15.51
2017-07-26T00:51:39.369Z,15.45
2017-07-26T00:51:52.851Z,15.49
2017-07-26T00:52:06.325Z,15.47
2017-07-26T00:52:19.383Z,15.45
2017-07-26T00:52:32.832Z,15.47
2017-07-26T00:52:46.243Z,15.49
2017-07-26T00:52:59.682Z,15.49
2017-07-26T00:53:13.148Z,15.47
2017-07-26T00:53:26.546Z,15.45
2017-07-26T00:53:39.473Z,15.49
2017-07-26T00:53:52.984Z,15.45
2017-07-26T00:54:05.969Z,15.45
2017-07-26T00:54:18.894Z,15.51
2017-07-26T00:54:32.261Z,15.47
2017-07-26T00:54:45.220Z,15.53
2017-07-26T00:54:58.690Z,15.44
2017-07-26T00:55:12.220Z,15.51
2017-07-26T00:55:24.703Z,15.4
2017-07-26T00:55:38.144Z,15.49
2017-07-26T00:55:51.020Z,15.44
2017-07-26T00:56:04.399Z,15.44
2017-07-26T00:56:17.783Z,15.41
2017-07-26T00:56:31.301Z,15.45
2017-07-26T00:56:44.825Z,15.45
2017-07-26T00:56:58.312Z,15.4
2017-07-26T00:57:11.250Z,15.47
2017-07-26T00:57:24.205Z,15.41
2017-07-26T00:57:37.632Z,15.41
2017-07-26T00:57:50.466Z,15.44
2017-07-26T00:58:03.904Z,15.4
2017-07-26T00:58:16.791Z,15.44
2017-07-26T00:58:30.233Z,15.34
2017-07-26T00:58:43.124Z,15.35
2017-07-26T00:58:56.138Z,15.33
2017-07-26T00:59:09.632Z,15.27
2017-07-26T00:59:22.632Z,15.34
2017-07-26T00:59:36.062Z,15.35
2017-07-26T00:59:49.480Z,15.3
2017-07-26T01:00:03.016Z,15.37
2017-07-26T01:00:16.572Z,15.31
2017-07-26T01:00:30.079Z,15.37
2017-07-26T01:00:43.613Z,15.31
2017-07-26T01:00:57.044Z,15.27
2017-07-26T01:01:10.472Z,15.26
2017-07-26T01:01:23.413Z,15.34
2017-07-26T01:01:36.857Z,15.31
2017-07-26T01:01:50.344Z,15.26
2017-07-26T01:02:03.801Z,15.3
2017-07-26T01:02:17.321Z,15.27
2017-07-26T01:02:30.318Z,15.35
2017-07-26T01:02:43.809Z,15.3
2017-07-26T01:02:57.275Z,15.26
2017-07-26T01:03:10.741Z,15.26
2017-07-26T01:03:23.600Z,15.25
2017-07-26T01:03:37.003Z,15.31
2017-07-26T01:03:50.479Z,15.3
2017-07-26T01:04:02.901Z,15.25
2017-07-26T01:04:16.404Z,15.2
2017-07-26T01:04:29.928Z,15.27
2017-07-26T01:04:43.342Z,15.18
2017-07-26T01:04:56.805Z,15.31
2017-07-26T01:05:09.227Z,15.25
2017-07-26T01:05:22.700Z,15.33
2017-07-26T01:05:36.122Z,15.22
2017-07-26T01:05:49.589Z,15.19
2017-07-26T01:06:02.519Z,15.18
2017-07-26T01:06:15.434Z,15.23
2017-07-26T01:06:28.952Z,15.15
2017-07-26T01:06:42.451Z,15.27
2017-07-26T01:06:55.952Z,15.23
2017-07-26T01:07:09.426Z,15.18
2017-07-26T01:07:22.931Z,15.19
2017-07-26T01:07:35.349Z,15.23
2017-07-26T01:07:48.249Z,15.31
2017-07-26T01:08:01.741Z,15.22
2017-07-26T01:08:14.657Z,15.31
2017-07-26T01:08:28.046Z,15.25
2017-07-26T01:08:41.529Z,15.3
2017-07-26T01:08:54.967Z,15.3
2017-07-26T01:09:08.441Z,15.2
2017-07-26T01:09:21.442Z,15.18
2017-07-26T01:09:34.934Z,15.27
2017-07-26T01:09:47.843Z,15.13
2017-07-26T01:10:01.275Z,15.15
2017-07-26T01:10:14.235Z,15.13
2017-07-26T01:10:27.636Z,15.18
2017-07-26T01:10:41.073Z,15.16
2017-07-26T01:10:54.515Z,15.15
2017-07-26T01:11:08.035Z,15.19
2017-07-26T01:11:21.276Z,15.15
2017-07-26T01:11:34.751Z,15.18
2017-07-26T01:11:47.179Z,15.16
2017-07-26T01:12:00.613Z,15.16
2017-07-26T01:12:14.037Z,15.15
2017-07-26T01:12:27.493Z,15.15
2017-07-26T01:12:40.979Z,15.15
2017-07-26T01:12:54.395Z,15.13
2017-07-26T01:13:07.836Z,15.05
2017-07-26T01:13:21.288Z,15.18
2017-07-26T01:13:34.751Z,15.08
2017-07-26T01:13:48.135Z,15.12
2017-07-26T01:14:01.610Z,15.07
2017-07-26T01:14:14.562Z,15.08
2017-07-26T01:14:28.042Z,15.05
2017-07-26T01:14:41.005Z,15.07
2017-07-26T01:14:53.909Z,15.01
2017-07-26T01:15:07.320Z,15.04
2017-07-26T01:15:20.790Z,15.02
2017-07-26T01:15:34.255Z,15.01
2017-07-26T01:15:47.783Z,15.01
2017-07-26T01:16:01.254Z,15
2017-07-26T01:16:14.728Z,15.05
2017-07-26T01:16:28.201Z,14.89
2017-07-26T01:16:41.639Z,14.98
2017-07-26T01:16:55.094Z,14.89
2017-07-26T01:17:08.561Z,14.98
2017-07-26T01:17:21.954Z,14.97
2017-07-26T01:17:35.422Z,15.01
2017-07-26T01:17:48.867Z,15
2017-07-26T01:18:02.300Z,14.93
2017-07-26T01:18:15.253Z,14.95
2017-07-26T01:18:28.874Z,15
2017-07-26T01:18:42.340Z,14.9
2017-07-26T01:18:55.767Z,14.97
2017-07-26T01:19:09.500Z,14.98
2017-07-26T01:19:22.992Z,14.9
2017-07-26T01:19:35.352Z,14.83
2017-07-26T01:19:48.822Z,14.94
2017-07-26T01:20:02.227Z,14.89
2017-07-26T01:20:15.763Z,14.82
2017-07-26T01:20:29.185Z,14.89
2017-07-26T01:20:42.694Z,14.8
2017-07-26T01:20:55.661Z,14.83
2017-07-26T01:21:09.181Z,14.86
2017-07-26T01:21:22.673Z,14.83
2017-07-26T01:21:36.115Z,14.82
2017-07-26T01:21:49.678Z,14.8
2017-07-26T01:22:03.163Z,14.93
2017-07-26T01:22:16.102Z,14.79
2017-07-26T01:22:29.590Z,14.77
2017-07-26T01:22:43.047Z,14.82
2017-07-26T01:22:56.514Z,14.85
2017-07-26T01:23:10.020Z,14.83
2017-07-26T01:23:23.500Z,14.77
2017-07-26T01:23:36.913Z,14.85
2017-07-26T01:23:49.842Z,14.85
2017-07-26T01:24:03.224Z,14.77
2017-07-26T01:24:16.098Z,14.85
2017-07-26T01:24:29.500Z,14.79
2017-07-26T01:24:42.416Z,14.82
2017-07-26T01:24:55.850Z,14.85
2017-07-26T01:25:09.393Z,14.82
2017-07-26T01:25:22.852Z,14.77
2017-07-26T01:25:36.273Z,14.8
2017-07-26T01:25:49.702Z,14.82
2017-07-26T01:26:03.181Z,14.85
2017-07-26T01:26:16.589Z,14.85
2017-07-26T01:26:30.677Z,14.85
2017-07-26T01:26:43.596Z,14.79
2017-07-26T01:26:57.032Z,14.83
2017-07-26T01:27:09.914Z,14.82
2017-07-26T01:27:23.342Z,14.8
2017-07-26T01:27:36.310Z,14.77
2017-07-26T01:27:49.771Z,14.87
2017-07-26T01:28:02.650Z,14.8
2017-07-26T01:28:16.113Z,14.82
2017-07-26T01:28:29.617Z,14.83
2017-07-26T01:28:42.570Z,14.79
2017-07-26T01:28:56.027Z,14.82
2017-07-26T01:29:09.482Z,14.83
2017-07-26T01:29:22.995Z,14.8
2017-07-26T01:29:36.473Z,14.77
2017-07-26T01:29:50.010Z,14.89
2017-07-26T01:30:03.451Z,14.83
2017-07-26T01:30:16.973Z,14.95
2017-07-26T01:30:29.928Z,14.93
2017-07-26T01:30:43.389Z,14.83
2017-07-26T01:30:56.901Z,14.97
2017-07-26T01:31:10.391Z,14.97
2017-07-26T01:31:23.307Z,15
2017-07-26T01:31:36.748Z,15
2017-07-26T01:31:50.143Z,14.95
2017-07-26T01:32:03.014Z,14.97
2017-07-26T01:32:15.892Z,15.01
2017-07-26T01:32:28.787Z,15
2017-07-26T01:32:42.183Z,15
2017-07-26T01:32:55.637Z,14.97
2017-07-26T01:33:08.560Z,15
2017-07-26T01:33:22.048Z,15.04
2017-07-26T01:33:35.003Z,15.02
2017-07-26T01:33:48.012Z,14.97
2017-07-26T01:34:01.485Z,14.98
2017-07-26T01:34:14.960Z,15.02
2017-07-26T01:34:28.432Z,15.05
2017-07-26T01:34:41.881Z,15.04
2017-07-26T01:34:54.787Z,15.13
2017-07-26T01:35:07.686Z,15.08
2017-07-26T01:35:20.630Z,14.98
2017-07-26T01:35:34.001Z,15.02
2017-07-26T01:35:47.449Z,15.01
2017-07-26T01:36:00.911Z,15.02
2017-07-26T01:36:13.826Z,15.02
2017-07-26T01:36:27.267Z,15.07
2017-07-26T01:36:40.775Z,15.05
2017-07-26T01:36:53.712Z,15.02
2017-07-26T01:37:07.167Z,14.98
2017-07-26T01:37:20.668Z,15.05
2017-07-26T01:37:34.168Z,15.01
2017-07-26T01:37:47.663Z,15.02
2017-07-26T01:38:01.126Z,15.01
2017-07-26T01:38:14.077Z,14.98
2017-07-26T01:38:27.490Z,15
2017-07-26T01:38:40.995Z,14.98
2017-07-26T01:38:54.466Z,14.9
2017-07-26T01:39:07.989Z,14.86
2017-07-26T01:39:21.461Z,14.89
2017-07-26T01:39:34.381Z,14.94
2017-07-26T01:39:47.817Z,14.83
2017-07-26T01:40:00.782Z,14.83
2017-07-26T01:40:14.266Z,14.82
2017-07-26T01:40:27.753Z,14.83
2017-07-26T01:40:41.197Z,14.83
2017-07-26T01:40:54.679Z,14.82
2017-07-26T01:41:08.081Z,14.87
2017-07-26T01:41:21.554Z,14.83
2017-07-26T01:41:35.860Z,14.79
2017-07-26T01:41:49.396Z,14.82
2017-07-26T01:42:02.903Z,14.77
2017-07-26T01:42:16.331Z,14.79
2017-07-26T01:42:29.811Z,14.82
2017-07-26T01:42:42.793Z,14.8
2017-07-26T01:42:56.261Z,14.86
2017-07-26T01:43:09.708Z,14.79
2017-07-26T01:43:22.651Z,14.8
2017-07-26T01:43:35.550Z,14.79
2017-07-26T01:43:48.955Z,14.74
2017-07-26T01:44:02.392Z,14.77
2017-07-26T01:44:15.871Z,14.71
2017-07-26T01:44:29.388Z,14.74
2017-07-26T01:44:42.790Z,14.7
2017-07-26T01:44:56.276Z,14.69
2017-07-26T01:45:09.205Z,14.71
2017-07-26T01:45:22.148Z,14.71
2017-07-26T01:45:35.681Z,14.66
2017-07-26T01:45:48.715Z,14.77
2017-07-26T01:46:02.245Z,14.69
2017-07-26T01:46:15.239Z,14.71
2017-07-26T01:46:28.215Z,14.7
2017-07-26T01:46:41.964Z,14.64
2017-07-26T01:46:55.506Z,14.69
2017-07-26T01:47:08.936Z,14.69
2017-07-26T01:47:21.949Z,14.66
2017-07-26T01:47:35.392Z,14.7
2017-07-26T01:47:48.860Z,14.7
2017-07-26T01:48:01.777Z,14.67
2017-07-26T01:48:15.239Z,14.7
2017-07-26T01:48:28.641Z,14.79
2017-07-26T01:48:42.103Z,14.74
2017-07-26T01:48:55.557Z,14.71
2017-07-26T01:49:09.027Z,14.64
2017-07-26T01:49:21.389Z,14.69
2017-07-26T01:49:34.334Z,14.71
2017-07-26T01:49:47.843Z,14.71
2017-07-26T01:50:01.298Z,14.75
2017-07-26T01:50:14.815Z,14.77
2017-07-26T01:50:28.189Z,14.67
2017-07-26T01:50:41.613Z,14.71
2017-07-26T01:50:55.094Z,14.71
2017-07-26T01:51:08.547Z,14.75
2017-07-26T01:51:21.992Z,14.7
2017-07-26T01:51:35.660Z,14.74
2017-07-26T01:51:49.128Z,14.75
2017-07-26T01:52:02.087Z,14.71
2017-07-26T01:52:15.590Z,14.75
2017-07-26T01:52:29.028Z,14.77
2017-07-26T01:52:42.508Z,14.74
2017-07-26T01:52:55.960Z,14.7
2017-07-26T01:53:09.453Z,14.63
2017-07-26T01:53:22.905Z,14.67
2017-07-26T01:53:36.363Z,14.74
2017-07-26T01:53:49.868Z,14.64
2017-07-26T01:54:02.845Z,14.67
2017-07-26T01:54:16.284Z,14.7
2017-07-26T01:54:29.778Z,14.64
2017-07-26T01:54:43.297Z,14.6
2017-07-26T01:54:55.699Z,14.74
2017-07-26T01:55:09.157Z,14.66
2017-07-26T01:55:22.156Z,14.64
2017-07-26T01:55:35.649Z,14.64
2017-07-26T01:55:49.368Z,14.7
2017-07-26T01:56:02.923Z,14.63
2017-07-26T01:56:16.396Z,14.61
2017-07-26T01:56:29.854Z,14.64
2017-07-26T01:56:43.484Z,14.64
2017-07-26T01:56:56.986Z,14.69
2017-07-26T01:57:09.996Z,14.71
2017-07-26T01:57:22.979Z,14.6
2017-07-26T01:57:36.432Z,14.61
2017-07-26T01:57:49.850Z,14.61
2017-07-26T01:58:03.264Z,14.66
2017-07-26T01:58:16.213Z,14.6
2017-07-26T01:58:29.672Z,14.61
2017-07-26T01:58:43.105Z,14.59
2017-07-26T01:58:56.072Z,14.57
2017-07-26T01:59:09.612Z,14.6
2017-07-26T01:59:23.121Z,14.56
2017-07-26T01:59:36.077Z,14.53
2017-07-26T01:59:49.015Z,14.49
2017-07-26T02:00:01.996Z,14.59
2017-07-26T02:00:15.460Z,14.56
2017-07-26T02:00:28.385Z,14.51
2017-07-26T02:00:41.873Z,14.52
2017-07-26T02:00:55.316Z,14.53
2017-07-26T02:01:08.799Z,14.45
2017-07-26T02:01:21.752Z,14.51
2017-07-26T02:01:35.265Z,14.48
2017-07-26T02:01:48.770Z,14.49
2017-07-26T02:02:02.248Z,14.49
2017-07-26T02:02:15.738Z,14.49
2017-07-26T02:02:28.661Z,14.45
2017-07-26T02:02:41.562Z,14.49
2017-07-26T02:02:55.032Z,14.45
2017-07-26T02:03:08.553Z,14.45
2017-07-26T02:03:21.548Z,14.52
2017-07-26T02:03:34.510Z,14.56
2017-07-26T02:03:47.953Z,14.46
2017-07-26T02:04:00.911Z,14.46
2017-07-26T02:04:15.786Z,14.44
2017-07-26T02:04:29.268Z,14.49
2017-07-26T02:04:42.726Z,14.44
2017-07-26T02:04:56.173Z,14.51
2017-07-26T02:05:09.705Z,14.46
2017-07-26T02:05:21.643Z,14.46
2017-07-26T02:05:35.094Z,14.51
2017-07-26T02:05:48.782Z,14.45
2017-07-26T02:06:02.227Z,14.45
2017-07-26T02:06:15.604Z,14.42
2017-07-26T02:06:28.975Z,14.49
2017-07-26T02:06:42.469Z,14.46
2017-07-26T02:06:55.933Z,14.48
2017-07-26T02:07:09.363Z,14.51
2017-07-26T02:07:22.813Z,14.53
2017-07-26T02:07:36.227Z,14.59
2017-07-26T02:07:49.723Z,14.53
2017-07-26T02:08:03.187Z,14.59
2017-07-26T02:08:16.616Z,14.57
2017-07-26T02:08:30.065Z,14.53
2017-07-26T02:08:43.009Z,14.48
2017-07-26T02:08:56.456Z,14.53
2017-07-26T02:09:09.915Z,14.56
2017-07-26T02:09:23.367Z,14.57
2017-07-26T02:09:36.847Z,14.57
2017-07-26T02:09:50.296Z,14.56
2017-07-26T02:10:03.778Z,14.56
2017-07-26T02:10:17.289Z,14.46
2017-07-26T02:10:30.778Z,14.48
2017-07-26T02:10:44.230Z,14.49
2017-07-26T02:10:57.704Z,14.48
2017-07-26T02:11:11.227Z,14.48
2017-07-26T02:11:24.731Z,14.51
2017-07-26T02:11:38.201Z,14.44
2017-07-26T02:11:52.490Z,14.42
2017-07-26T02:12:05.983Z,14.49
2017-07-26T02:12:19.447Z,14.42
2017-07-26T02:12:32.940Z,14.42
2017-07-26T02:12:46.382Z,14.46
2017-07-26T02:12:59.897Z,14.42
2017-07-26T02:13:13.379Z,14.45
2017-07-26T02:13:26.812Z,14.41
2017-07-26T02:13:40.230Z,14.42
2017-07-26T02:13:53.767Z,14.42
2017-07-26T02:14:06.693Z,14.42
2017-07-26T02:14:20.185Z,14.44
2017-07-26T02:14:33.140Z,14.41
2017-07-26T02:14:46.616Z,14.39
2017-07-26T02:14:59.530Z,14.42
2017-07-26T02:15:13.039Z,14.36
2017-07-26T02:15:26.768Z,14.38
2017-07-26T02:15:40.209Z,14.42
2017-07-26T02:15:53.626Z,14.39
2017-07-26T02:16:07.034Z,14.41
2017-07-26T02:16:19.520Z,14.39
2017-07-26T02:16:33.251Z,14.41
2017-07-26T02:16:46.627Z,14.41
2017-07-26T02:17:00.063Z,14.34
2017-07-26T02:17:13.554Z,14.39
2017-07-26T02:17:26.509Z,14.38
2017-07-26T02:17:39.427Z,14.39
2017-07-26T02:17:52.890Z,14.41
2017-07-26T02:18:06.338Z,14.39
2017-07-26T02:18:19.329Z,14.39
2017-07-26T02:18:32.720Z,14.41
2017-07-26T02:18:45.613Z,14.39
2017-07-26T02:18:59.067Z,14.31
2017-07-26T02:19:12.502Z,14.38
2017-07-26T02:19:25.409Z,14.39
2017-07-26T02:19:38.320Z,14.36
2017-07-26T02:19:51.738Z,14.3
2017-07-26T02:20:05.191Z,14.3
2017-07-26T02:20:18.115Z,14.33
2017-07-26T02:20:31.031Z,14.3
2017-07-26T02:20:44.577Z,14.23
2017-07-26T02:20:58.030Z,14.27
2017-07-26T02:21:11.487Z,14.23
2017-07-26T02:21:24.428Z,14.3
2017-07-26T02:21:37.351Z,14.31
2017-07-26T02:21:50.547Z,14.34
2017-07-26T02:22:03.983Z,14.27
2017-07-26T02:22:17.443Z,14.27
2017-07-26T02:22:30.878Z,14.27
2017-07-26T02:22:43.770Z,14.23
2017-07-26T02:22:57.170Z,14.28
2017-07-26T02:23:10.639Z,14.24
2017-07-26T02:23:23.604Z,14.27
2017-07-26T02:23:36.008Z,14.26
2017-07-26T02:23:49.496Z,14.28
2017-07-26T02:24:02.963Z,14.24
2017-07-26T02:24:16.436Z,14.21
2017-07-26T02:24:29.912Z,14.24
2017-07-26T02:24:43.382Z,14.27
2017-07-26T02:24:56.820Z,14.24
2017-07-26T02:25:10.351Z,14.23
2017-07-26T02:25:23.345Z,14.28
2017-07-26T02:25:36.783Z,14.26
2017-07-26T02:25:50.276Z,14.15
2017-07-26T02:26:03.757Z,14.26
2017-07-26T02:26:16.125Z,14.2
2017-07-26T02:26:29.647Z,14.27
2017-07-26T02:26:43.131Z,14.16
2017-07-26T02:26:57.317Z,14.23
2017-07-26T02:27:10.235Z,14.24
2017-07-26T02:27:23.665Z,14.23
2017-07-26T02:27:37.101Z,14.16
2017-07-26T02:27:50.529Z,14.21
2017-07-26T02:28:03.478Z,14.12
2017-07-26T02:28:16.440Z,14.15
2017-07-26T02:28:29.878Z,14.16
2017-07-26T02:28:43.329Z,14.13
2017-07-26T02:28:56.776Z,14.15
2017-07-26T02:29:10.226Z,14.15
2017-07-26T02:29:23.648Z,14.15
2017-07-26T02:29:37.121Z,14.23
2017-07-26T02:29:49.990Z,14.13
2017-07-26T02:30:03.465Z,14.26
2017-07-26T02:30:16.979Z,14.2
2017-07-26T02:30:30.411Z,14.23
2017-07-26T02:30:43.896Z,14.16
2017-07-26T02:30:57.350Z,14.24
2017-07-26T02:31:10.303Z,14.27
2017-07-26T02:31:23.713Z,14.3
2017-07-26T02:31:36.656Z,14.15
2017-07-26T02:31:50.101Z,14.24
2017-07-26T02:32:03.014Z,14.16
2017-07-26T02:32:16.540Z,14.19
2017-07-26T02:32:29.997Z,14.15
2017-07-26T02:32:43.477Z,14.19
2017-07-26T02:32:56.439Z,14.16
2017-07-26T02:33:09.863Z,14.15
2017-07-26T02:33:23.290Z,14.11
2017-07-26T02:33:36.788Z,14.15
2017-07-26T02:33:49.790Z,14.13
2017-07-26T02:34:03.258Z,14.19
2017-07-26T02:34:16.713Z,14.15
2017-07-26T02:34:29.633Z,14.15
2017-07-26T02:34:42.562Z,14.16
2017-07-26T02:34:56.038Z,14.13
2017-07-26T02:35:08.476Z,14.15
2017-07-26T02:35:21.407Z,14.11
2017-07-26T02:35:34.305Z,14.15
2017-07-26T02:35:47.699Z,14.12
2017-07-26T02:36:01.200Z,14.16
2017-07-26T02:36:14.086Z,14.12
2017-07-26T02:36:26.975Z,14.19
2017-07-26T02:36:40.429Z,14.15
2017-07-26T02:36:53.872Z,14.11
2017-07-26T02:37:07.320Z,14.16
2017-07-26T02:37:20.846Z,14.11
2017-07-26T02:37:34.311Z,14.16
2017-07-26T02:37:47.273Z,14.12
2017-07-26T02:38:00.766Z,14.08
2017-07-26T02:38:14.240Z,14.19
2017-07-26T02:38:27.216Z,14.12
2017-07-26T02:38:39.629Z,14.11
2017-07-26T02:38:52.512Z,14.09
2017-07-26T02:39:05.927Z,14.12
2017-07-26T02:39:19.372Z,14.06
2017-07-26T02:39:32.810Z,14.02
2017-07-26T02:39:45.797Z,14.01
2017-07-26T02:39:59.234Z,14.02
2017-07-26T02:40:12.173Z,14.02
2017-07-26T02:40:25.655Z,14.06
2017-07-26T02:40:38.585Z,14.06
2017-07-26T02:40:52.044Z,14.01
2017-07-26T02:41:05.508Z,13.99
2017-07-26T02:41:19.005Z,14.03
2017-07-26T02:41:32.527Z,14.06
2017-07-26T02:41:46.036Z,14.03
2017-07-26T02:41:59.717Z,14.05
2017-07-26T02:42:12.671Z,14.03
2017-07-26T02:42:26.058Z,14.02
2017-07-26T02:42:39.526Z,14.05
2017-07-26T02:42:52.455Z,14.02
2017-07-26T02:43:05.946Z,14.02
2017-07-26T02:43:19.395Z,13.99
2017-07-26T02:43:32.869Z,13.95
2017-07-26T02:43:46.362Z,14.02
2017-07-26T02:43:59.801Z,14.02
2017-07-26T02:44:12.705Z,13.99
2017-07-26T02:44:26.216Z,14.01
2017-07-26T02:44:39.147Z,14.01
2017-07-26T02:44:52.543Z,13.95
2017-07-26T02:45:05.966Z,13.97
2017-07-26T02:45:19.416Z,13.91
2017-07-26T02:45:32.907Z,13.94
2017-07-26T02:45:45.886Z,13.94
2017-07-26T02:45:58.851Z,13.99
2017-07-26T02:46:12.351Z,14.01
2017-07-26T02:46:25.222Z,14.05
2017-07-26T02:46:38.719Z,14.02
2017-07-26T02:46:52.171Z,14.06
2017-07-26T02:47:05.283Z,13.95
2017-07-26T02:47:18.718Z,14.08
2017-07-26T02:47:31.611Z,14.02
2017-07-26T02:47:45.137Z,14.02
2017-07-26T02:47:58.539Z,14.06
2017-07-26T02:48:12.028Z,13.97
2017-07-26T02:48:25.518Z,13.97
2017-07-26T02:48:38.446Z,14.02
2017-07-26T02:48:51.868Z,14.02
2017-07-26T02:49:05.284Z,14.05
2017-07-26T02:49:18.185Z,13.99
2017-07-26T02:49:31.114Z,14.02
2017-07-26T02:49:44.568Z,14.06
2017-07-26T02:49:57.998Z,14.02
2017-07-26T02:50:11.493Z,14.01
2017-07-26T02:50:24.397Z,14.02
2017-07-26T02:50:37.897Z,13.97
2017-07-26T02:50:51.363Z,14.02
2017-07-26T02:51:04.348Z,14.02
2017-07-26T02:51:17.825Z,14.09
2017-07-26T02:51:31.248Z,14.01
2017-07-26T02:51:44.681Z,13.97
2017-07-26T02:51:58.107Z,14.01
2017-07-26T02:52:11.087Z,14.02